createdAt,value
2017-12-04T00:00:12.076Z,4.00
2017-12-04T00:02:42.880Z,3.80
2017-12-04T00:05:13.641Z,3.80
2017-12-04T00:07:44.400Z,3.73
2017-12-04T00:10:15.191Z,3.90
2017-12-04T00:12:45.950Z,3.70
2017-12-04T00:15:16.732Z,3.80
2017-12-04T00:17:47.483Z,3.90
2017-12-04T00:20:18.272Z,3.50
2017-12-04T00:22:49.024Z,4.07
2017-12-04T00:25:19.792Z,3.80
2017-12-04T00:27:50.540Z,3.43
2017-12-04T00:30:21.312Z,3.60
2017-12-04T00:32:52.060Z,3.30
2017-12-04T00:35:22.833Z,3.37
2017-12-04T00:37:53.606Z,3.57
2017-12-04T00:40:24.354Z,3.73
2017-12-04T00:42:55.136Z,3.60
2017-12-04T00:45:25.888Z,3.30
2017-12-04T00:47:56.661Z,3.47
2017-12-04T00:50:27.428Z,3.53
2017-12-04T00:52:58.207Z,3.40
2017-12-04T00:55:28.974Z,3.40
2017-12-04T00:57:59.753Z,3.20
2017-12-04T01:00:30.488Z,3.47
2017-12-04T01:03:01.248Z,3.50
2017-12-04T01:05:32.012Z,3.40
2017-12-04T01:08:02.787Z,3.10
2017-12-04T01:10:33.575Z,3.50
2017-12-04T01:13:04.308Z,3.27
2017-12-04T01:15:35.088Z,3.40
2017-12-04T01:18:05.844Z,3.27
2017-12-04T01:20:36.604Z,3.27
2017-12-04T01:23:07.376Z,3.20
2017-12-04T01:25:38.124Z,3.20
2017-12-04T01:28:08.916Z,3.40
2017-12-04T01:30:39.672Z,3.10
2017-12-04T01:33:10.479Z,3.20
2017-12-04T01:35:41.246Z,3.17
2017-12-04T01:38:12.033Z,3.27
2017-12-04T01:40:42.808Z,3.10
2017-12-04T01:43:13.596Z,3.20
2017-12-04T01:45:44.337Z,3.03
2017-12-04T01:48:15.102Z,3.00
2017-12-04T01:50:45.852Z,3.00
2017-12-04T01:53:16.636Z,3.13
2017-12-04T01:55:47.392Z,3.07
2017-12-04T01:58:18.160Z,3.10
2017-12-04T02:00:48.912Z,2.93
2017-12-04T02:03:19.676Z,3.10
2017-12-04T02:05:50.436Z,3.20
2017-12-04T02:08:21.203Z,3.20
2017-12-04T02:10:51.980Z,3.00
2017-12-04T02:13:22.736Z,3.03
2017-12-04T02:15:53.516Z,3.00
2017-12-04T02:18:24.266Z,2.97
2017-12-04T02:20:55.135Z,3.13
2017-12-04T02:23:25.888Z,2.63
2017-12-04T02:25:56.667Z,2.90
2017-12-04T02:28:27.468Z,3.30
2017-12-04T02:30:58.237Z,3.00
2017-12-04T02:33:28.984Z,2.93
2017-12-04T02:35:59.754Z,3.00
2017-12-04T02:38:30.492Z,3.20
2017-12-04T02:41:01.257Z,3.20
2017-12-04T02:43:32.017Z,3.10
2017-12-04T02:46:02.769Z,2.80
2017-12-04T02:48:33.536Z,2.80
2017-12-04T02:51:04.318Z,3.10
2017-12-04T02:53:35.068Z,3.00
2017-12-04T02:56:05.831Z,2.80
2017-12-04T02:58:36.580Z,2.97
2017-12-04T03:01:07.353Z,2.93
2017-12-04T03:03:38.092Z,2.93
2017-12-04T03:06:08.858Z,2.80
2017-12-04T03:08:39.624Z,2.67
2017-12-04T03:11:10.374Z,2.70
2017-12-04T03:13:41.166Z,2.77
2017-12-04T03:16:11.959Z,2.70
2017-12-04T03:18:42.740Z,3.07
2017-12-04T03:21:13.477Z,3.10
2017-12-04T03:23:44.240Z,2.90
2017-12-04T03:26:15.024Z,2.97
2017-12-04T03:28:45.810Z,2.70
2017-12-04T03:31:16.588Z,2.63
2017-12-04T03:33:47.357Z,2.60
2017-12-04T03:36:18.152Z,2.93
2017-12-04T03:38:48.921Z,3.00
2017-12-04T03:41:19.680Z,2.83
2017-12-04T03:43:50.434Z,2.83
2017-12-04T03:46:21.217Z,2.70
2017-12-04T03:48:51.984Z,2.90
2017-12-04T03:51:22.733Z,2.90
2017-12-04T03:53:53.516Z,2.90
2017-12-04T03:56:24.264Z,2.80
2017-12-04T03:58:55.035Z,3.07
2017-12-04T04:01:25.793Z,2.47
2017-12-04T04:03:56.557Z,2.97
2017-12-04T04:06:27.316Z,2.90
2017-12-04T04:08:58.096Z,2.97
2017-12-04T04:11:28.876Z,2.70
2017-12-04T04:13:59.616Z,2.60
2017-12-04T04:16:30.396Z,2.80
2017-12-04T04:19:01.187Z,2.90
2017-12-04T04:21:31.920Z,2.60
2017-12-04T04:24:02.697Z,2.80
2017-12-04T04:26:33.476Z,2.70
2017-12-04T04:29:04.259Z,2.47
2017-12-04T04:31:35.012Z,3.00
2017-12-04T04:34:05.844Z,2.40
2017-12-04T04:36:36.588Z,2.87
2017-12-04T04:39:07.356Z,2.63
2017-12-04T04:41:38.112Z,2.87
2017-12-04T04:44:08.892Z,2.67
2017-12-04T04:46:39.665Z,2.80
2017-12-04T04:49:10.427Z,2.40
2017-12-04T04:51:41.176Z,2.50
2017-12-04T04:54:11.960Z,2.90
2017-12-04T04:56:42.712Z,2.50
2017-12-04T04:59:13.505Z,2.80
2017-12-04T05:01:44.278Z,2.63
2017-12-04T05:04:15.037Z,2.70
2017-12-04T05:06:45.800Z,2.70
2017-12-04T05:09:16.600Z,2.80
2017-12-04T05:11:47.349Z,2.40
2017-12-04T05:14:18.129Z,2.70
2017-12-04T05:16:48.913Z,2.70
2017-12-04T05:19:19.652Z,2.40
2017-12-04T05:21:50.441Z,2.57
2017-12-04T05:24:21.195Z,2.83
2017-12-04T05:26:51.984Z,2.50
2017-12-04T05:29:22.752Z,2.80
2017-12-04T05:31:53.734Z,2.50
2017-12-04T05:34:24.504Z,2.60
2017-12-04T05:36:55.294Z,2.57
2017-12-04T05:39:26.044Z,2.60
2017-12-04T05:41:56.828Z,2.43
2017-12-04T05:44:27.616Z,2.30
2017-12-04T05:46:58.384Z,2.50
2017-12-04T05:49:29.153Z,2.80
2017-12-04T05:51:59.949Z,2.53
2017-12-04T05:54:30.724Z,2.70
2017-12-04T05:57:01.476Z,2.50
2017-12-04T05:59:32.244Z,2.60
2017-12-04T06:02:02.989Z,2.57
2017-12-04T06:04:33.756Z,2.40
2017-12-04T06:07:04.512Z,2.50
2017-12-04T06:09:35.309Z,2.63
2017-12-04T06:12:06.076Z,2.57
2017-12-04T06:14:36.857Z,2.40
2017-12-04T06:17:07.608Z,2.30
2017-12-04T06:19:38.372Z,2.30
2017-12-04T06:22:09.164Z,2.53
2017-12-04T06:24:39.944Z,2.57
2017-12-04T06:27:10.696Z,2.30
2017-12-04T06:29:41.489Z,2.60
2017-12-04T06:32:12.239Z,2.40
2017-12-04T06:34:43.021Z,2.27
2017-12-04T06:37:13.780Z,2.50
2017-12-04T06:39:44.556Z,2.40
2017-12-04T06:42:15.338Z,2.33
2017-12-04T06:44:46.090Z,2.50
2017-12-04T06:47:16.856Z,2.50
2017-12-04T06:49:47.636Z,2.33
2017-12-04T06:52:18.395Z,2.33
2017-12-04T06:54:49.152Z,2.60
2017-12-04T06:57:19.900Z,2.63
2017-12-04T06:59:50.691Z,2.73
2017-12-04T07:02:21.437Z,2.40
2017-12-04T07:04:52.208Z,2.47
2017-12-04T07:07:22.952Z,2.50
2017-12-04T07:09:53.713Z,2.50
2017-12-04T07:12:24.472Z,2.60
2017-12-04T07:14:55.248Z,2.40
2017-12-04T07:17:26.016Z,2.63
2017-12-04T07:19:56.775Z,2.70
2017-12-04T07:22:27.539Z,3.03
2017-12-04T07:24:58.292Z,2.70
2017-12-04T07:27:29.055Z,2.57
2017-12-04T07:29:59.817Z,2.50
2017-12-04T07:32:30.587Z,2.73
2017-12-04T07:35:01.350Z,2.60
2017-12-04T07:37:32.106Z,2.60
2017-12-04T07:40:02.880Z,2.60
2017-12-04T07:42:33.649Z,2.50
2017-12-04T07:45:04.428Z,2.40
2017-12-04T07:47:35.166Z,2.83
2017-12-04T07:50:05.937Z,2.50
2017-12-04T07:52:36.728Z,2.60
2017-12-04T07:55:07.493Z,3.13
2017-12-04T07:57:38.256Z,2.60
2017-12-04T08:00:09.032Z,2.50
2017-12-04T08:02:39.784Z,2.67
2017-12-04T08:05:10.556Z,2.70
2017-12-04T08:07:41.326Z,2.63
2017-12-04T08:10:12.089Z,2.70
2017-12-04T08:12:42.844Z,2.53
2017-12-04T08:15:13.664Z,2.30
2017-12-04T08:17:44.420Z,2.47
2017-12-04T08:20:15.195Z,2.70
2017-12-04T08:22:45.957Z,2.50
2017-12-04T08:25:16.797Z,2.50
2017-12-04T08:27:47.486Z,2.53
2017-12-04T08:30:18.273Z,2.70
2017-12-04T08:32:49.032Z,2.50
2017-12-04T08:35:19.796Z,2.30
2017-12-04T08:37:50.584Z,2.70
2017-12-04T08:40:21.332Z,2.30
2017-12-04T08:42:52.112Z,2.30
2017-12-04T08:45:22.876Z,2.50
2017-12-04T08:47:53.633Z,2.40
2017-12-04T08:50:25.252Z,2.43
2017-12-04T08:52:56.008Z,2.40
2017-12-04T08:55:26.772Z,2.47
2017-12-04T08:57:57.545Z,2.50
2017-12-04T09:00:28.324Z,2.60
2017-12-04T09:02:59.098Z,2.40
2017-12-04T09:05:29.872Z,2.57
2017-12-04T09:08:00.646Z,2.90
2017-12-04T09:10:31.398Z,2.40
2017-12-04T09:13:02.177Z,2.60
2017-12-04T09:15:32.939Z,2.17
2017-12-04T09:18:03.712Z,2.50
2017-12-04T09:20:34.484Z,2.30
2017-12-04T09:23:05.236Z,2.40
2017-12-04T09:25:36.016Z,2.70
2017-12-04T09:28:06.804Z,2.40
2017-12-04T09:30:37.560Z,2.47
2017-12-04T09:33:08.332Z,2.40
2017-12-04T09:35:39.104Z,2.77
2017-12-04T09:38:09.856Z,2.60
2017-12-04T09:40:40.629Z,2.40
2017-12-04T09:43:11.413Z,2.60
2017-12-04T09:45:42.164Z,2.63
2017-12-04T09:48:12.934Z,2.50
2017-12-04T09:50:43.704Z,2.60
2017-12-04T09:53:14.465Z,2.60
2017-12-04T09:55:45.244Z,2.33
2017-12-04T09:58:16.059Z,2.50
2017-12-04T10:00:46.796Z,2.50
2017-12-04T10:03:17.589Z,2.40
2017-12-04T10:05:48.361Z,2.40
2017-12-04T10:08:19.104Z,2.43
2017-12-04T10:10:49.873Z,2.53
2017-12-04T10:13:20.652Z,2.20
2017-12-04T10:15:51.436Z,2.37
2017-12-04T10:18:22.197Z,2.60
2017-12-04T10:20:52.971Z,2.33
2017-12-04T10:23:23.733Z,2.40
2017-12-04T10:25:54.488Z,2.50
2017-12-04T10:28:25.261Z,2.30
2017-12-04T10:30:56.016Z,1.97
2017-12-04T10:33:26.780Z,2.57
2017-12-04T10:35:57.534Z,2.30
2017-12-04T10:38:28.304Z,2.53
2017-12-04T10:40:59.092Z,2.30
2017-12-04T10:43:29.856Z,2.13
2017-12-04T10:46:00.682Z,2.30
2017-12-04T10:48:31.408Z,2.30
2017-12-04T10:51:02.181Z,2.20
2017-12-04T10:53:32.946Z,2.10
2017-12-04T10:56:03.720Z,2.20
2017-12-04T10:58:34.471Z,2.50
2017-12-04T11:01:05.233Z,2.23
2017-12-04T11:03:36.021Z,2.20
2017-12-04T11:06:06.808Z,2.50
2017-12-04T11:08:37.561Z,2.10
2017-12-04T11:11:08.332Z,2.20
2017-12-04T11:13:39.104Z,2.23
2017-12-04T11:16:09.880Z,2.20
2017-12-04T11:18:40.632Z,2.40
2017-12-04T11:21:11.409Z,2.20
2017-12-04T11:23:42.153Z,2.50
2017-12-04T11:26:12.929Z,2.10
2017-12-04T11:28:43.672Z,2.10
2017-12-04T11:31:14.467Z,2.30
2017-12-04T11:33:45.259Z,2.03
2017-12-04T11:36:15.991Z,2.00
2017-12-04T11:38:47.499Z,2.33
2017-12-04T11:41:18.272Z,2.20
2017-12-04T11:43:49.039Z,2.40
2017-12-04T11:46:19.820Z,2.20
2017-12-04T11:48:50.594Z,2.40
2017-12-04T11:51:21.408Z,2.47
2017-12-04T11:53:52.152Z,2.07
2017-12-04T11:56:22.950Z,2.27
2017-12-04T11:58:53.684Z,2.40
2017-12-04T12:01:24.464Z,2.47
2017-12-04T12:03:55.225Z,2.37
2017-12-04T12:06:25.988Z,2.13
2017-12-04T12:08:56.756Z,2.20
2017-12-04T12:11:27.548Z,2.10
2017-12-04T12:13:58.315Z,2.57
2017-12-04T12:16:29.081Z,2.40
2017-12-04T12:18:59.882Z,2.43
2017-12-04T12:21:30.658Z,2.40
2017-12-04T12:24:01.421Z,2.00
2017-12-04T12:26:32.197Z,2.10
2017-12-04T12:29:02.970Z,2.40
2017-12-04T12:31:33.733Z,2.37
2017-12-04T12:34:04.490Z,2.20
2017-12-04T12:36:35.248Z,2.10
2017-12-04T12:39:06.008Z,2.20
2017-12-04T12:41:36.792Z,2.13
2017-12-04T12:44:07.556Z,2.53
2017-12-04T12:46:38.308Z,2.37
2017-12-04T12:49:09.082Z,2.20
2017-12-04T12:51:39.841Z,2.23
2017-12-04T12:54:10.630Z,2.20
2017-12-04T12:56:41.400Z,2.20
2017-12-04T12:59:12.161Z,2.40
2017-12-04T13:01:42.933Z,2.40
2017-12-04T13:04:13.713Z,2.20
2017-12-04T13:06:44.497Z,2.40
2017-12-04T13:09:15.268Z,2.20
2017-12-04T13:11:46.027Z,2.23
2017-12-04T13:14:16.820Z,2.33
2017-12-04T13:16:47.612Z,2.20
2017-12-04T13:19:18.352Z,2.23
2017-12-04T13:21:49.120Z,2.30
2017-12-04T13:24:19.905Z,2.30
2017-12-04T13:26:50.698Z,2.30
2017-12-04T13:29:21.464Z,2.33
2017-12-04T13:31:52.248Z,2.10
2017-12-04T13:34:23.033Z,2.23
2017-12-04T13:36:53.796Z,2.30
2017-12-04T13:39:24.585Z,2.40
2017-12-04T13:41:55.340Z,2.60
2017-12-04T13:44:26.104Z,2.30
2017-12-04T13:46:56.892Z,2.30
2017-12-04T13:49:27.674Z,2.37
2017-12-04T13:51:58.400Z,2.47
2017-12-04T13:54:29.172Z,2.40
2017-12-04T13:56:59.968Z,2.50
2017-12-04T13:59:30.716Z,2.10
2017-12-04T14:02:01.475Z,2.00
2017-12-04T14:04:32.232Z,2.30
2017-12-04T14:07:02.996Z,2.30
2017-12-04T14:09:33.800Z,2.23
2017-12-04T14:12:04.536Z,2.23
2017-12-04T14:14:35.347Z,2.40
2017-12-04T14:17:06.108Z,2.30
2017-12-04T14:19:36.899Z,1.90
2017-12-04T14:22:07.665Z,2.23
2017-12-04T14:24:38.403Z,2.37
2017-12-04T14:27:09.209Z,2.40
2017-12-04T14:29:39.972Z,2.20
2017-12-04T14:32:10.759Z,2.43
2017-12-04T14:34:41.526Z,2.10
2017-12-04T14:37:12.308Z,2.30
2017-12-04T14:39:43.061Z,2.30
2017-12-04T14:42:13.968Z,2.20
2017-12-04T14:44:44.732Z,2.13
2017-12-04T14:47:15.504Z,2.20
2017-12-04T14:49:46.300Z,2.30
2017-12-04T14:52:17.044Z,2.30
2017-12-04T14:54:47.937Z,2.20
2017-12-04T14:57:18.684Z,2.30
2017-12-04T14:59:49.490Z,2.20
2017-12-04T15:02:20.240Z,2.30
2017-12-04T15:04:51.653Z,2.10
2017-12-04T15:07:22.451Z,2.10
2017-12-04T15:09:53.192Z,2.23
2017-12-04T15:12:23.972Z,2.43
2017-12-04T15:14:54.760Z,2.10
2017-12-04T15:17:25.536Z,2.37
2017-12-04T15:19:56.296Z,2.23
2017-12-04T15:22:27.089Z,2.13
2017-12-04T15:24:57.860Z,2.30
2017-12-04T15:27:28.621Z,2.30
2017-12-04T15:29:59.364Z,2.20
2017-12-04T15:32:30.158Z,2.30
2017-12-04T15:35:00.886Z,2.03
2017-12-04T15:37:31.669Z,2.47
2017-12-04T15:40:02.480Z,2.10
2017-12-04T15:42:33.268Z,2.20
2017-12-04T15:45:04.027Z,2.10
2017-12-04T15:47:34.793Z,2.10
2017-12-04T15:50:05.588Z,2.33
2017-12-04T15:52:36.328Z,2.43
2017-12-04T15:55:07.116Z,2.50
2017-12-04T15:57:37.884Z,2.30
2017-12-04T16:00:08.684Z,2.20
2017-12-04T16:02:39.478Z,2.27
2017-12-04T16:05:10.264Z,2.43
2017-12-04T16:07:41.034Z,2.40
2017-12-04T16:10:11.788Z,2.30
2017-12-04T16:12:42.568Z,2.60
2017-12-04T16:15:13.349Z,2.60
2017-12-04T16:17:44.098Z,2.33
2017-12-04T16:20:14.868Z,2.20
2017-12-04T16:22:45.638Z,2.40
2017-12-04T16:25:16.432Z,2.30
2017-12-04T16:27:47.201Z,2.70
2017-12-04T16:30:17.976Z,2.50
2017-12-04T16:32:48.740Z,2.57
2017-12-04T16:35:19.518Z,2.50
2017-12-04T16:37:50.272Z,2.70
2017-12-04T16:40:21.056Z,2.47
2017-12-04T16:42:51.873Z,2.57
2017-12-04T16:45:22.620Z,2.53
2017-12-04T16:47:53.388Z,2.60
2017-12-04T16:50:24.188Z,2.53
2017-12-04T16:52:54.939Z,2.50
2017-12-04T16:55:25.734Z,2.10
2017-12-04T16:57:56.528Z,2.80
2017-12-04T17:00:27.289Z,2.47
2017-12-04T17:02:58.073Z,2.50
2017-12-04T17:05:28.837Z,2.20
2017-12-04T17:07:59.643Z,2.17
2017-12-04T17:10:30.415Z,2.30
2017-12-04T17:13:01.155Z,2.30
2017-12-04T17:15:31.946Z,2.50
2017-12-04T17:18:02.717Z,2.43
2017-12-04T17:20:33.482Z,2.30
2017-12-04T17:23:04.237Z,2.30
2017-12-04T17:25:35.012Z,2.37
2017-12-04T17:28:05.782Z,2.40
2017-12-04T17:30:36.532Z,2.10
2017-12-04T17:33:07.323Z,2.67
2017-12-04T17:35:38.100Z,2.30
2017-12-04T17:38:08.873Z,2.30
2017-12-04T17:40:39.642Z,2.50
2017-12-04T17:43:10.392Z,2.40
2017-12-04T17:45:41.264Z,2.37
2017-12-04T17:48:12.008Z,2.47
2017-12-04T17:50:42.801Z,2.53
2017-12-04T17:53:13.566Z,2.40
2017-12-04T17:55:44.361Z,2.37
2017-12-04T17:58:15.150Z,2.37
2017-12-04T18:00:45.908Z,2.40
2017-12-04T18:03:16.694Z,2.40
2017-12-04T18:05:47.461Z,2.53
2017-12-04T18:08:18.248Z,2.50
2017-12-04T18:10:49.008Z,2.60
2017-12-04T18:13:19.849Z,2.50
2017-12-04T18:15:50.600Z,2.40
2017-12-04T18:18:21.376Z,2.50
2017-12-04T18:20:52.175Z,2.50
2017-12-04T18:23:22.946Z,2.70
2017-12-04T18:25:53.700Z,2.40
2017-12-04T18:28:24.474Z,2.50
2017-12-04T18:30:55.258Z,2.37
2017-12-04T18:33:26.029Z,2.60
2017-12-04T18:35:56.827Z,2.40
2017-12-04T18:38:27.584Z,2.30
2017-12-04T18:40:58.357Z,2.73
2017-12-04T18:43:29.151Z,2.47
2017-12-04T18:45:59.910Z,2.60
2017-12-04T18:48:30.689Z,2.50
2017-12-04T18:51:01.435Z,2.60
2017-12-04T18:53:32.236Z,2.57
2017-12-04T18:56:03.000Z,2.80
2017-12-04T18:58:33.788Z,2.60
2017-12-04T19:01:04.581Z,2.63
2017-12-04T19:03:35.341Z,2.70
2017-12-04T19:06:06.101Z,2.80
2017-12-04T19:08:36.880Z,2.60
2017-12-04T19:11:07.672Z,2.70
2017-12-04T19:13:38.442Z,2.70
2017-12-04T19:16:09.193Z,3.07
2017-12-04T19:18:39.961Z,3.00
2017-12-04T19:21:10.730Z,2.87
2017-12-04T19:23:41.519Z,2.70
2017-12-04T19:26:12.289Z,2.83
2017-12-04T19:28:43.085Z,3.00
2017-12-04T19:31:13.832Z,2.90
2017-12-04T19:33:44.597Z,2.60
2017-12-04T19:36:15.344Z,3.20
2017-12-04T19:38:46.141Z,2.90
2017-12-04T19:41:16.913Z,2.87
2017-12-04T19:43:47.656Z,2.90
2017-12-04T19:46:18.430Z,2.70
2017-12-04T19:48:49.185Z,2.90
2017-12-04T19:51:19.981Z,3.17
2017-12-04T19:53:50.740Z,3.07
2017-12-04T19:56:21.549Z,3.10
2017-12-04T19:58:52.334Z,3.20
2017-12-04T20:01:23.118Z,3.30
2017-12-04T20:03:53.905Z,3.20
2017-12-04T20:06:24.696Z,3.00
2017-12-04T20:08:55.490Z,2.87
2017-12-04T20:11:26.257Z,3.10
2017-12-04T20:13:57.032Z,3.00
2017-12-04T20:16:27.972Z,3.10
2017-12-04T20:18:58.737Z,3.10
2017-12-04T20:21:29.521Z,3.07
2017-12-04T20:24:00.278Z,3.00
2017-12-04T20:26:31.028Z,2.70
2017-12-04T20:29:01.801Z,3.00
2017-12-04T20:31:32.573Z,3.03
2017-12-04T20:34:03.333Z,3.07
2017-12-04T20:36:34.109Z,3.30
2017-12-04T20:39:04.875Z,2.93
2017-12-04T20:41:35.655Z,3.20
2017-12-04T20:44:06.445Z,3.20
2017-12-04T20:46:37.234Z,3.03
2017-12-04T20:49:08.000Z,3.17
2017-12-04T20:51:38.756Z,3.20
2017-12-04T20:54:09.520Z,3.03
2017-12-04T20:56:40.297Z,2.90
2017-12-04T20:59:11.058Z,3.10
2017-12-04T21:01:41.847Z,2.90
2017-12-04T21:04:12.609Z,2.97
2017-12-04T21:06:43.388Z,3.13
2017-12-04T21:09:14.141Z,2.93
2017-12-04T21:11:44.904Z,3.00
2017-12-04T21:14:15.702Z,3.07
2017-12-04T21:16:46.484Z,2.90
2017-12-04T21:19:17.233Z,2.87
2017-12-04T21:21:48.023Z,2.90
2017-12-04T21:24:18.778Z,3.00
2017-12-04T21:26:49.582Z,2.70
2017-12-04T21:29:20.334Z,2.77
2017-12-04T21:31:51.080Z,2.60
2017-12-04T21:34:21.868Z,2.80
2017-12-04T21:36:52.620Z,2.90
2017-12-04T21:39:23.372Z,2.90
2017-12-04T21:41:54.136Z,2.77
2017-12-04T21:44:24.913Z,2.60
2017-12-04T21:46:55.686Z,3.00
2017-12-04T21:49:26.461Z,2.53
2017-12-04T21:51:57.214Z,2.93
2017-12-04T21:54:27.992Z,3.07
2017-12-04T21:56:58.733Z,2.80
2017-12-04T21:59:29.520Z,2.90
2017-12-04T22:02:00.288Z,2.67
2017-12-04T22:04:31.049Z,2.80
2017-12-04T22:07:01.812Z,2.87
2017-12-04T22:09:32.609Z,2.90
2017-12-04T22:12:03.378Z,2.97
2017-12-04T22:14:34.159Z,2.80
2017-12-04T22:17:04.913Z,2.77
2017-12-04T22:19:35.688Z,2.60
2017-12-04T22:22:06.484Z,2.47
2017-12-04T22:24:37.232Z,2.87
2017-12-04T22:27:08.020Z,2.63
2017-12-04T22:29:38.808Z,3.00
2017-12-04T22:32:09.574Z,2.90
2017-12-04T22:34:40.360Z,2.50
2017-12-04T22:37:11.121Z,2.60
2017-12-04T22:39:41.886Z,2.47
2017-12-04T22:42:12.666Z,2.87
2017-12-04T22:44:43.422Z,2.77
2017-12-04T22:47:14.193Z,2.73
2017-12-04T22:49:44.940Z,2.70
2017-12-04T22:52:15.708Z,2.80
2017-12-04T22:54:46.497Z,2.70
2017-12-04T22:57:17.268Z,2.50
2017-12-04T22:59:48.046Z,2.87
2017-12-04T23:02:18.812Z,2.47
2017-12-04T23:04:49.596Z,2.53
2017-12-04T23:07:20.349Z,2.70
2017-12-04T23:09:51.106Z,2.63
2017-12-04T23:12:21.890Z,2.90
2017-12-04T23:14:52.639Z,2.70
2017-12-04T23:17:23.431Z,2.60
2017-12-04T23:19:54.168Z,2.70
2017-12-04T23:22:24.940Z,3.00
2017-12-04T23:24:55.760Z,2.50
2017-12-04T23:27:26.540Z,2.50
2017-12-04T23:29:57.291Z,2.87
2017-12-04T23:32:28.061Z,2.90
2017-12-04T23:34:58.805Z,3.03
2017-12-04T23:37:29.601Z,2.67
2017-12-04T23:40:00.352Z,2.63
2017-12-04T23:42:31.143Z,2.57
2017-12-04T23:45:01.918Z,2.80
2017-12-04T23:47:32.675Z,2.67
2017-12-04T23:50:03.430Z,2.60
2017-12-04T23:52:34.220Z,2.87
2017-12-04T23:55:04.965Z,2.80
2017-12-04T23:57:35.739Z,2.70
